sensor_id;sensor_type;location;lat;lon;timestamp;pressure;altitude;pressure_sealevel;temperature;humidity
58534;BME280;44109;52.398;7.024;2022-11-12T00:01:10;102952.72;;;4.96;92.21
58534;BME280;44109;52.398;7.024;2022-11-12T00:03:37;102954.34;;;4.97;92.58
58534;BME280;44109;52.398;7.024;2022-11-12T00:06:05;102951.06;;;5.00;92.68
58534;BME280;44109;52.398;7.024;2022-11-12T00:08:33;102952.97;;;5.00;92.50
58534;BME280;44109;52.398;7.024;2022-11-12T00:11:00;102956.56;;;5.00;92.79
58534;BME280;44109;52.398;7.024;2022-11-12T00:13:31;102952.97;;;5.00;93.02
58534;BME280;44109;52.398;7.024;2022-11-12T00:15:58;102954.88;;;4.99;92.62
58534;BME280;44109;52.398;7.024;2022-11-12T00:18:26;102957.91;;;4.98;92.76
58534;BME280;44109;52.398;7.024;2022-11-12T00:20:54;102955.16;;;4.98;93.10
58534;BME280;44109;52.398;7.024;2022-11-12T00:23:21;102952.41;;;4.98;92.87
58534;BME280;44109;52.398;7.024;2022-11-12T00:25:57;102948.56;;;4.99;93.07
58534;BME280;44109;52.398;7.024;2022-11-12T00:28:26;102953.25;;;4.98;92.54
58534;BME280;44109;52.398;7.024;2022-11-12T00:30:55;102957.38;;;4.96;93.19
58534;BME280;44109;52.398;7.024;2022-11-12T00:33:22;102959.03;;;4.92;92.38
58534;BME280;44109;52.398;7.024;2022-11-12T00:35:50;102960.69;;;4.88;92.50
58534;BME280;44109;52.398;7.024;2022-11-12T00:38:17;102946.94;;;4.88;93.21
58534;BME280;44109;52.398;7.024;2022-11-12T00:40:45;102944.72;;;4.90;93.25
58534;BME280;44109;52.398;7.024;2022-11-12T00:43:12;102949.13;;;4.96;92.89
58534;BME280;44109;52.398;7.024;2022-11-12T00:45:41;102952.97;;;4.95;93.14
58534;BME280;44109;52.398;7.024;2022-11-12T00:48:11;102955.72;;;4.95;93.20
58534;BME280;44109;52.398;7.024;2022-11-12T00:50:38;102956.81;;;4.94;92.86
58534;BME280;44109;52.398;7.024;2022-11-12T00:53:06;102920.31;;;4.68;92.78
58534;BME280;44109;52.398;7.024;2022-11-12T00:55:33;102949.13;;;4.86;92.47
58534;BME280;44109;52.398;7.024;2022-11-12T00:58:01;102961.00;;;4.86;92.79
58534;BME280;44109;52.398;7.024;2022-11-12T01:00:28;102964.00;;;4.84;92.47
58534;BME280;44109;52.398;7.024;2022-11-12T01:02:56;102962.91;;;4.80;92.65
58534;BME280;44109;52.398;7.024;2022-11-12T01:05:25;102953.84;;;4.80;92.30
58534;BME280;44109;52.398;7.024;2022-11-12T01:07:52;102953.00;;;4.79;92.17
58534;BME280;44109;52.398;7.024;2022-11-12T01:10:20;102952.47;;;4.77;92.43
58534;BME280;44109;52.398;7.024;2022-11-12T01:12:47;102953.03;;;4.74;91.91
58534;BME280;44109;52.398;7.024;2022-11-12T01:15:15;102948.66;;;4.68;92.27
58534;BME280;44109;52.398;7.024;2022-11-12T01:17:43;102948.09;;;4.66;92.24
58534;BME280;44109;52.398;7.024;2022-11-12T01:20:10;102947.25;;;4.66;92.76
58534;BME280;44109;52.398;7.024;2022-11-12T01:22:39;102943.69;;;4.65;92.97
58534;BME280;44109;52.398;7.024;2022-11-12T01:25:07;102946.16;;;4.67;93.13
58534;BME280;44109;52.398;7.024;2022-11-12T01:27:35;102952.47;;;4.62;92.38
58534;BME280;44109;52.398;7.024;2022-11-12T01:30:03;102938.75;;;4.62;92.74
58534;BME280;44109;52.398;7.024;2022-11-12T01:32:33;102946.44;;;4.60;92.33
58534;BME280;44109;52.398;7.024;2022-11-12T01:35:02;102955.53;;;4.55;92.16
58534;BME280;44109;52.398;7.024;2022-11-12T01:37:29;102929.72;;;4.41;91.71
58534;BME280;44109;52.398;7.024;2022-11-12T01:39:58;102947.00;;;4.47;92.13
58534;BME280;44109;52.398;7.024;2022-11-12T01:42:28;102934.63;;;4.39;91.99
58534;BME280;44109;52.398;7.024;2022-11-12T01:44:56;102949.75;;;4.42;92.23
58534;BME280;44109;52.398;7.024;2022-11-12T01:47:26;102947.56;;;4.44;91.92
58534;BME280;44109;52.398;7.024;2022-11-12T01:49:59;102950.03;;;4.45;92.05
58534;BME280;44109;52.398;7.024;2022-11-12T01:52:35;102904.16;;;4.15;92.21
58534;BME280;44109;52.398;7.024;2022-11-12T01:55:11;102944.53;;;4.40;91.83
58534;BME280;44109;52.398;7.024;2022-11-12T01:57:46;102938.50;;;4.38;92.15
58534;BME280;44109;52.398;7.024;2022-11-12T02:00:18;102941.53;;;4.42;92.40
58534;BME280;44109;52.398;7.024;2022-11-12T02:02:51;102946.19;;;4.41;92.52
58534;BME280;44109;52.398;7.024;2022-11-12T02:05:21;102946.44;;;4.40;91.97
58534;BME280;44109;52.398;7.024;2022-11-12T02:07:52;102945.34;;;4.36;92.29
58534;BME280;44109;52.398;7.024;2022-11-12T02:10:22;102905.81;;;4.11;92.23
58534;BME280;44109;52.398;7.024;2022-11-12T02:12:51;102932.44;;;4.31;91.96
58534;BME280;44109;52.398;7.024;2022-11-12T02:15:39;102934.66;;;4.29;91.51
58534;BME280;44109;52.398;7.024;2022-11-12T02:18:08;102925.03;;;4.26;92.05
58534;BME280;44109;52.398;7.024;2022-11-12T02:20:37;102924.47;;;4.24;91.54
58534;BME280;44109;52.398;7.024;2022-11-12T02:23:06;102922.28;;;4.21;91.68
58534;BME280;44109;52.398;7.024;2022-11-12T02:25:35;102919.00;;;4.19;91.67
58534;BME280;44109;52.398;7.024;2022-11-12T02:28:05;102910.75;;;4.14;91.51
58534;BME280;44109;52.398;7.024;2022-11-12T02:30:36;102918.72;;;4.16;91.90
58534;BME280;44109;52.398;7.024;2022-11-12T02:33:06;102919.53;;;4.21;91.75
58534;BME280;44109;52.398;7.024;2022-11-12T02:35:33;102918.41;;;4.22;92.38
58534;BME280;44109;52.398;7.024;2022-11-12T02:38:02;102913.75;;;4.18;92.19
58534;BME280;44109;52.398;7.024;2022-11-12T02:40:31;102926.41;;;4.19;91.91
58534;BME280;44109;52.398;7.024;2022-11-12T02:42:59;102919.00;;;4.14;91.75
58534;BME280;44109;52.398;7.024;2022-11-12T02:45:27;102920.91;;;4.14;92.15
58534;BME280;44109;52.398;7.024;2022-11-12T02:47:55;102920.34;;;4.12;91.77
58534;BME280;44109;52.398;7.024;2022-11-12T02:50:23;102921.47;;;4.11;92.05
58534;BME280;44109;52.398;7.024;2022-11-12T02:52:50;102925.31;;;4.10;92.19
58534;BME280;44109;52.398;7.024;2022-11-12T02:55:18;102922.81;;;4.08;91.66
58534;BME280;44109;52.398;7.024;2022-11-12T02:57:47;102911.28;;;4.01;91.55
58534;BME280;44109;52.398;7.024;2022-11-12T03:00:15;102918.97;;;4.04;91.61
58534;BME280;44109;52.398;7.024;2022-11-12T03:02:43;102915.69;;;4.02;91.36
58534;BME280;44109;52.398;7.024;2022-11-12T03:05:24;102925.56;;;4.08;92.16
58534;BME280;44109;52.398;7.024;2022-11-12T03:07:55;102927.78;;;4.11;92.47
58534;BME280;44109;52.398;7.024;2022-11-12T03:10:24;102889.34;;;3.91;92.38
58534;BME280;44109;52.398;7.024;2022-11-12T03:12:55;102916.78;;;4.16;92.17
58534;BME280;44109;52.398;7.024;2022-11-12T03:15:24;102923.09;;;4.17;92.65
58534;BME280;44109;52.398;7.024;2022-11-12T03:17:53;102914.84;;;4.17;92.71
58534;BME280;44109;52.398;7.024;2022-11-12T03:20:20;102910.75;;;4.14;92.63
58534;BME280;44109;52.398;7.024;2022-11-12T03:22:54;102918.44;;;4.12;92.36
58534;BME280;44109;52.398;7.024;2022-11-12T03:25:23;102923.91;;;4.12;92.26
58534;BME280;44109;52.398;7.024;2022-11-12T03:27:59;102926.66;;;4.17;92.95
58534;BME280;44109;52.398;7.024;2022-11-12T03:30:30;102911.28;;;4.16;92.82
58534;BME280;44109;52.398;7.024;2022-11-12T03:33:00;102912.38;;;4.25;93.03
58534;BME280;44109;52.398;7.024;2022-11-12T03:35:28;102907.19;;;4.29;92.79
58534;BME280;44109;52.398;7.024;2022-11-12T03:37:55;102918.44;;;4.27;93.05
58534;BME280;44109;52.398;7.024;2022-11-12T03:40:23;102901.41;;;4.20;93.31
58534;BME280;44109;52.398;7.024;2022-11-12T03:42:52;102923.94;;;4.32;93.53
58534;BME280;44109;52.398;7.024;2022-11-12T03:45:24;102917.34;;;4.33;92.92
58534;BME280;44109;52.398;7.024;2022-11-12T03:47:54;102911.03;;;4.33;93.21
58534;BME280;44109;52.398;7.024;2022-11-12T03:50:25;102917.34;;;4.33;92.93
58534;BME280;44109;52.398;7.024;2022-11-12T03:52:56;102904.72;;;4.32;93.06
58534;BME280;44109;52.398;7.024;2022-11-12T03:55:27;102884.91;;;4.25;93.09
58534;BME280;44109;52.398;7.024;2022-11-12T03:57:56;102901.66;;;4.39;92.93
58534;BME280;44109;52.398;7.024;2022-11-12T04:00:27;102876.41;;;4.22;93.23
58534;BME280;44109;52.398;7.024;2022-11-12T04:02:56;102899.47;;;4.41;92.85
58534;BME280;44109;52.398;7.024;2022-11-12T04:05:24;102901.66;;;4.39;92.84
58534;BME280;44109;52.398;7.024;2022-11-12T04:08:20;102875.56;;;4.21;93.27
58534;BME280;44109;52.398;7.024;2022-11-12T04:11:06;102895.91;;;4.41;93.84
58534;BME280;44109;52.398;7.024;2022-11-12T04:13:37;102898.91;;;4.44;93.80
58534;BME280;44109;52.398;7.024;2022-11-12T04:16:10;102900.28;;;4.47;93.88
58534;BME280;44109;52.398;7.024;2022-11-12T04:18:59;102890.69;;;4.39;95.38
58534;BME280;44109;52.398;7.024;2022-11-12T04:21:46;102906.59;;;4.52;94.88
58534;BME280;44109;52.398;7.024;2022-11-12T04:24:22;102901.91;;;4.53;94.73
58534;BME280;44109;52.398;7.024;2022-11-12T04:27:10;102893.16;;;4.51;94.51
58534;BME280;44109;52.398;7.024;2022-11-12T04:29:40;102900.28;;;4.52;94.46
58534;BME280;44109;52.398;7.024;2022-11-12T04:32:27;102908.25;;;4.53;94.38
58534;BME280;44109;52.398;7.024;2022-11-12T04:34:55;102911.28;;;4.52;93.66
58534;BME280;44109;52.398;7.024;2022-11-12T04:37:25;102881.06;;;4.26;93.76
58534;BME280;44109;52.398;7.024;2022-11-12T04:39:54;102915.13;;;4.46;93.29
58534;BME280;44109;52.398;7.024;2022-11-12T04:42:42;102915.97;;;4.41;93.51
58534;BME280;44109;52.398;7.024;2022-11-12T04:45:31;102924.75;;;4.38;92.93
58534;BME280;44109;52.398;7.024;2022-11-12T04:48:00;102924.47;;;4.40;93.30
58534;BME280;44109;52.398;7.024;2022-11-12T04:50:28;102920.06;;;4.39;93.22
58534;BME280;44109;52.398;7.024;2022-11-12T04:52:56;102914.88;;;4.37;92.72
58534;BME280;44109;52.398;7.024;2022-11-12T04:55:23;102878.88;;;4.08;92.65
58534;BME280;44109;52.398;7.024;2022-11-12T04:57:51;102911.31;;;4.31;92.58
58534;BME280;44109;52.398;7.024;2022-11-12T05:00:18;102920.38;;;4.32;92.99
58534;BME280;44109;52.398;7.024;2022-11-12T05:02:48;102921.44;;;4.31;93.16
58534;BME280;44109;52.398;7.024;2022-11-12T05:05:17;102920.63;;;4.30;93.01
58534;BME280;44109;52.398;7.024;2022-11-12T05:07:45;102918.97;;;4.35;93.88
58534;BME280;44109;52.398;7.024;2022-11-12T05:10:13;102924.22;;;4.41;93.35
58534;BME280;44109;52.398;7.024;2022-11-12T05:12:40;102919.53;;;4.47;94.22
58534;BME280;44109;52.398;7.024;2022-11-12T05:15:09;102926.41;;;4.54;94.23
58534;BME280;44109;52.398;7.024;2022-11-12T05:17:41;102918.38;;;4.63;94.33
58534;BME280;44109;52.398;7.024;2022-11-12T05:20:10;102921.69;;;4.65;94.70
58534;BME280;44109;52.398;7.024;2022-11-12T05:22:39;102911.81;;;4.69;94.47
58534;BME280;44109;52.398;7.024;2022-11-12T05:25:07;102906.03;;;4.66;94.21
58534;BME280;44109;52.398;7.024;2022-11-12T05:27:35;102905.47;;;4.58;93.57
58534;BME280;44109;52.398;7.024;2022-11-12T05:30:04;102903.31;;;4.50;93.15
58534;BME280;44109;52.398;7.024;2022-11-12T05:32:32;102911.00;;;4.48;93.80
58534;BME280;44109;52.398;7.024;2022-11-12T05:35:00;102913.50;;;4.50;93.93
58534;BME280;44109;52.398;7.024;2022-11-12T05:37:28;102912.91;;;4.53;94.17
58534;BME280;44109;52.398;7.024;2022-11-12T05:39:57;102905.22;;;4.55;94.20
58534;BME280;44109;52.398;7.024;2022-11-12T05:42:24;102898.63;;;4.56;93.52
58534;BME280;44109;52.398;7.024;2022-11-12T05:44:52;102903.03;;;4.52;93.95
58534;BME280;44109;52.398;7.024;2022-11-12T05:47:19;102909.06;;;4.49;93.08
58534;BME280;44109;52.398;7.024;2022-11-12T05:49:47;102906.06;;;4.45;92.86
58534;BME280;44109;52.398;7.024;2022-11-12T05:52:14;102905.22;;;4.45;93.50
58534;BME280;44109;52.398;7.024;2022-11-12T05:54:42;102889.03;;;4.33;93.61
58534;BME280;44109;52.398;7.024;2022-11-12T05:57:11;102897.00;;;4.40;92.81
58534;BME280;44109;52.398;7.024;2022-11-12T05:59:38;102898.09;;;4.33;92.73
58534;BME280;44109;52.398;7.024;2022-11-12T06:02:06;102907.44;;;4.32;92.62
58534;BME280;44109;52.398;7.024;2022-11-12T06:04:33;102903.31;;;4.30;92.56
58534;BME280;44109;52.398;7.024;2022-11-12T06:07:01;102903.31;;;4.30;93.00
58534;BME280;44109;52.398;7.024;2022-11-12T06:09:29;102879.72;;;4.19;92.85
58534;BME280;44109;52.398;7.024;2022-11-12T06:11:56;102888.22;;;4.22;92.26
58534;BME280;44109;52.398;7.024;2022-11-12T06:14:25;102894.28;;;4.19;92.75
58534;BME280;44109;52.398;7.024;2022-11-12T06:16:53;102891.53;;;4.14;92.48
58534;BME280;44109;52.398;7.024;2022-11-12T06:19:20;102900.84;;;4.08;92.38
58534;BME280;44109;52.398;7.024;2022-11-12T06:21:48;102903.34;;;4.10;92.64
58534;BME280;44109;52.398;7.024;2022-11-12T06:24:15;102906.09;;;4.10;92.66
58534;BME280;44109;52.398;7.024;2022-11-12T06:26:43;102902.53;;;4.09;92.26
58534;BME280;44109;52.398;7.024;2022-11-12T06:29:11;102897.84;;;4.10;92.09
58534;BME280;44109;52.398;7.024;2022-11-12T06:31:40;102894.00;;;4.05;92.31
58534;BME280;44109;52.398;7.024;2022-11-12T06:34:07;102907.44;;;4.02;92.11
58534;BME280;44109;52.398;7.024;2022-11-12T06:36:37;102911.28;;;3.96;91.76
58534;BME280;44109;52.398;7.024;2022-11-12T06:39:05;102900.31;;;3.91;92.31
58534;BME280;44109;52.398;7.024;2022-11-12T06:41:32;102906.34;;;3.88;92.24
58534;BME280;44109;52.398;7.024;2022-11-12T06:44:02;102916.16;;;3.63;92.33
58534;BME280;44109;52.398;7.024;2022-11-12T06:46:30;102910.13;;;3.56;93.51
58534;BME280;44109;52.398;7.024;2022-11-12T06:48:59;102901.06;;;3.50;93.44
58534;BME280;44109;52.398;7.024;2022-11-12T06:51:26;102880.97;;;3.40;94.42
58534;BME280;44109;52.398;7.024;2022-11-12T06:53:54;102916.19;;;3.68;94.49
58534;BME280;44109;52.398;7.024;2022-11-12T06:56:22;102917.84;;;3.79;94.95
58534;BME280;44109;52.398;7.024;2022-11-12T06:58:50;102910.72;;;3.94;94.46
58534;BME280;44109;52.398;7.024;2022-11-12T07:01:17;102915.09;;;3.79;93.97
58534;BME280;44109;52.398;7.024;2022-11-12T07:03:45;102914.53;;;3.72;94.54
58534;BME280;44109;52.398;7.024;2022-11-12T07:06:15;102919.19;;;3.72;94.62
58534;BME280;44109;52.398;7.024;2022-11-12T07:08:44;102911.53;;;3.69;94.26
58534;BME280;44109;52.398;7.024;2022-11-12T07:11:12;102921.94;;;3.67;94.14
58534;BME280;44109;52.398;7.024;2022-11-12T07:13:40;102912.28;;;3.54;94.42
58534;BME280;44109;52.398;7.024;2022-11-12T07:16:10;102932.38;;;3.65;94.33
58534;BME280;44109;52.398;7.024;2022-11-12T07:18:39;102935.41;;;3.68;95.26
58534;BME280;44109;52.398;7.024;2022-11-12T07:21:08;102911.22;;;3.50;95.06
58534;BME280;44109;52.398;7.024;2022-11-12T07:23:39;102935.13;;;3.75;95.31
58534;BME280;44109;52.398;7.024;2022-11-12T07:26:14;102934.31;;;3.79;95.31
58534;BME280;44109;52.398;7.024;2022-11-12T07:28:44;102950.81;;;3.85;95.60
58534;BME280;44109;52.398;7.024;2022-11-12T07:31:13;102946.13;;;3.85;95.94
58534;BME280;44109;52.398;7.024;2022-11-12T07:33:43;102944.78;;;3.88;95.88
58534;BME280;44109;52.398;7.024;2022-11-12T07:36:15;102950.25;;;3.83;95.97
58534;BME280;44109;52.398;7.024;2022-11-12T07:38:46;102948.88;;;3.80;96.69
58534;BME280;44109;52.398;7.024;2022-11-12T07:41:17;102934.03;;;3.76;96.62
58534;BME280;44109;52.398;7.024;2022-11-12T07:43:48;102945.88;;;3.92;96.24
58534;BME280;44109;52.398;7.024;2022-11-12T07:46:18;102956.88;;;3.97;96.25
58534;BME280;44109;52.398;7.024;2022-11-12T07:48:47;102952.75;;;3.99;95.87
58534;BME280;44109;52.398;7.024;2022-11-12T07:51:17;102955.78;;;4.03;95.84
58534;BME280;44109;52.398;7.024;2022-11-12T07:53:48;102957.97;;;4.06;95.89
58534;BME280;44109;52.398;7.024;2022-11-12T07:56:18;102949.75;;;4.06;96.49
58534;BME280;44109;52.398;7.024;2022-11-12T07:58:47;102949.22;;;4.14;96.57
58534;BME280;44109;52.398;7.024;2022-11-12T08:01:22;102939.59;;;4.37;96.25
58534;BME280;44109;52.398;7.024;2022-11-12T08:03:55;102951.94;;;4.40;96.80
58534;BME280;44109;52.398;7.024;2022-11-12T08:06:23;102958.84;;;4.37;97.70
58534;BME280;44109;52.398;7.024;2022-11-12T08:08:53;102966.78;;;4.44;98.24
58534;BME280;44109;52.398;7.024;2022-11-12T08:11:22;102948.38;;;4.34;98.72
58534;BME280;44109;52.398;7.024;2022-11-12T08:13:51;102973.38;;;4.63;98.76
58534;BME280;44109;52.398;7.024;2022-11-12T08:16:18;102978.88;;;4.73;98.75
58534;BME280;44109;52.398;7.024;2022-11-12T08:18:46;102971.16;;;4.75;99.36
58534;BME280;44109;52.398;7.024;2022-11-12T08:21:16;102984.31;;;4.94;99.28
58534;BME280;44109;52.398;7.024;2022-11-12T08:23:44;102986.22;;;5.03;99.45
58534;BME280;44109;52.398;7.024;2022-11-12T08:26:16;102984.81;;;5.16;99.70
58534;BME280;44109;52.398;7.024;2022-11-12T08:28:45;102988.13;;;5.23;99.59
58534;BME280;44109;52.398;7.024;2022-11-12T08:31:14;102991.94;;;5.32;99.55
58534;BME280;44109;52.398;7.024;2022-11-12T08:33:43;102994.13;;;5.41;99.91
58534;BME280;44109;52.398;7.024;2022-11-12T08:36:13;103002.34;;;5.46;100.00
58534;BME280;44109;52.398;7.024;2022-11-12T08:38:42;102956.72;;;5.29;100.00
58534;BME280;44109;52.398;7.024;2022-11-12T08:41:12;102997.88;;;5.65;100.00
58534;BME280;44109;52.398;7.024;2022-11-12T08:43:42;103001.13;;;5.77;100.00
58534;BME280;44109;52.398;7.024;2022-11-12T08:46:10;103004.34;;;5.90;100.00
58534;BME280;44109;52.398;7.024;2022-11-12T08:48:38;103000.72;;;5.99;100.00
58534;BME280;44109;52.398;7.024;2022-11-12T08:51:06;103002.06;;;6.07;100.00
58534;BME280;44109;52.398;7.024;2022-11-12T08:53:34;102997.34;;;6.18;100.00
58534;BME280;44109;52.398;7.024;2022-11-12T08:56:02;102990.09;;;6.27;100.00
58534;BME280;44109;52.398;7.024;2022-11-12T08:58:31;102992.50;;;6.33;100.00
58534;BME280;44109;52.398;7.024;2022-11-12T09:01:03;102989.97;;;6.42;100.00
58534;BME280;44109;52.398;7.024;2022-11-12T09:03:32;102995.75;;;6.46;100.00
58534;BME280;44109;52.398;7.024;2022-11-12T09:06:01;102997.25;;;6.62;100.00
58534;BME280;44109;52.398;7.024;2022-11-12T09:08:32;102998.91;;;6.58;100.00
58534;BME280;44109;52.398;7.024;2022-11-12T09:11:02;102986.22;;;6.62;100.00
58534;BME280;44109;52.398;7.024;2022-11-12T09:13:32;102991.50;;;6.88;100.00
58534;BME280;44109;52.398;7.024;2022-11-12T09:16:01;102994.69;;;7.00;100.00
58534;BME280;44109;52.398;7.024;2022-11-12T09:18:31;102998.16;;;7.10;100.00
58534;BME280;44109;52.398;7.024;2022-11-12T09:21:00;103001.69;;;7.16;100.00
58534;BME280;44109;52.398;7.024;2022-11-12T09:23:30;103004.94;;;7.23;100.00
58534;BME280;44109;52.398;7.024;2022-11-12T09:25:59;103006.50;;;7.29;100.00
58534;BME280;44109;52.398;7.024;2022-11-12T09:28:28;103017.22;;;7.36;100.00
58534;BME280;44109;52.398;7.024;2022-11-12T09:30:57;103004.41;;;7.45;100.00
58534;BME280;44109;52.398;7.024;2022-11-12T09:33:26;103012.63;;;7.50;100.00
58534;BME280;44109;52.398;7.024;2022-11-12T09:35:59;103007.53;;;7.57;100.00
58534;BME280;44109;52.398;7.024;2022-11-12T09:38:27;103015.41;;;7.69;100.00
58534;BME280;44109;52.398;7.024;2022-11-12T09:41:10;103008.69;;;7.75;100.00
58534;BME280;44109;52.398;7.024;2022-11-12T09:43:49;103010.81;;;7.83;100.00
58534;BME280;44109;52.398;7.024;2022-11-12T09:46:34;102987.72;;;7.93;100.00
58534;BME280;44109;52.398;7.024;2022-11-12T09:49:14;103005.53;;;8.06;100.00
58534;BME280;44109;52.398;7.024;2022-11-12T09:51:49;103003.22;;;8.13;100.00
58534;BME280;44109;52.398;7.024;2022-11-12T09:54:24;102999.16;;;8.24;100.00
58534;BME280;44109;52.398;7.024;2022-11-12T09:56:53;103007.06;;;8.31;100.00
58534;BME280;44109;52.398;7.024;2022-11-12T09:59:22;103005.59;;;8.38;100.00
58534;BME280;44109;52.398;7.024;2022-11-12T10:02:01;102991.09;;;8.47;100.00
58534;BME280;44109;52.398;7.024;2022-11-12T10:05:05;103007.50;;;8.57;100.00
58534;BME280;44109;52.398;7.024;2022-11-12T10:07:56;103006.25;;;8.68;100.00
58534;BME280;44109;52.398;7.024;2022-11-12T10:10:37;103004.50;;;8.72;100.00
58534;BME280;44109;52.398;7.024;2022-11-12T10:13:23;103000.06;;;9.04;100.00
58534;BME280;44109;52.398;7.024;2022-11-12T10:16:10;102998.72;;;9.15;100.00
58534;BME280;44109;52.398;7.024;2022-11-12T10:19:25;102989.63;;;9.28;100.00
58534;BME280;44109;52.398;7.024;2022-11-12T10:22:14;102979.34;;;9.43;100.00
58534;BME280;44109;52.398;7.024;2022-11-12T10:24:53;102979.94;;;9.53;100.00
58534;BME280;44109;52.398;7.024;2022-11-12T10:27:23;102972.97;;;9.56;100.00
58534;BME280;44109;52.398;7.024;2022-11-12T10:30:00;102977.06;;;9.72;100.00
58534;BME280;44109;52.398;7.024;2022-11-12T10:32:30;102981.69;;;9.77;100.00
58534;BME280;44109;52.398;7.024;2022-11-12T10:34:59;102975.81;;;9.78;100.00
58534;BME280;44109;52.398;7.024;2022-11-12T10:37:32;102966.47;;;9.74;100.00
58534;BME280;44109;52.398;7.024;2022-11-12T10:40:26;102981.00;;;9.94;100.00
58534;BME280;44109;52.398;7.024;2022-11-12T10:42:59;102976.56;;;10.06;100.00
58534;BME280;44109;52.398;7.024;2022-11-12T10:45:28;102982.44;;;10.05;100.00
58534;BME280;44109;52.398;7.024;2022-11-12T10:47:57;102972.84;;;10.11;100.00
58534;BME280;44109;52.398;7.024;2022-11-12T10:50:32;102966.22;;;10.21;100.00
58534;BME280;44109;52.398;7.024;2022-11-12T10:53:05;102966.84;;;10.31;100.00
58534;BME280;44109;52.398;7.024;2022-11-12T10:55:37;102968.84;;;10.39;100.00
58534;BME280;44109;52.398;7.024;2022-11-12T10:58:21;102972.63;;;10.44;97.47
58534;BME280;44109;52.398;7.024;2022-11-12T11:00:52;102958.00;;;10.52;98.25
58534;BME280;44109;52.398;7.024;2022-11-12T11:03:24;102955.59;;;10.59;97.73
58534;BME280;44109;52.398;7.024;2022-11-12T11:05:58;102967.25;;;10.70;96.82
58534;BME280;44109;52.398;7.024;2022-11-12T11:08:38;102944.09;;;10.74;96.74
58534;BME280;44109;52.398;7.024;2022-11-12T11:11:25;102955.44;;;10.86;95.73
58534;BME280;44109;52.398;7.024;2022-11-12T11:13:56;102944.84;;;10.97;95.75
58534;BME280;44109;52.398;7.024;2022-11-12T11:16:47;102940.50;;;11.05;94.83
58534;BME280;44109;52.398;7.024;2022-11-12T11:19:16;102930.84;;;11.11;94.41
58534;BME280;44109;52.398;7.024;2022-11-12T11:25:16;102925.34;;;11.28;95.38
58534;BME280;44109;52.398;7.024;2022-11-12T11:28:00;102915.72;;;11.34;95.00
58534;BME280;44109;52.398;7.024;2022-11-12T11:30:43;102919.50;;;11.38;94.53
58534;BME280;44109;52.398;7.024;2022-11-12T11:33:24;102917.22;;;11.40;92.80
58534;BME280;44109;52.398;7.024;2022-11-12T11:36:14;102925.56;;;11.58;92.71
58534;BME280;44109;52.398;7.024;2022-11-12T11:38:55;102904.66;;;11.69;94.15
58534;BME280;44109;52.398;7.024;2022-11-12T11:41:50;102914.84;;;11.82;94.82
58534;BME280;44109;52.398;7.024;2022-11-12T11:44:42;102910.25;;;11.78;89.31
58534;BME280;44109;52.398;7.024;2022-11-12T11:47:26;102916.81;;;11.99;92.85
58534;BME280;44109;52.398;7.024;2022-11-12T11:50:17;102926.97;;;12.04;90.59
58534;BME280;44109;52.398;7.024;2022-11-12T11:52:58;102917.13;;;12.06;90.35
58534;BME280;44109;52.398;7.024;2022-11-12T11:55:53;102919.56;;;12.16;91.83
58534;BME280;44109;52.398;7.024;2022-11-12T11:58:38;102913.19;;;12.16;92.23
58534;BME280;44109;52.398;7.024;2022-11-12T12:01:19;102908.44;;;12.25;92.39
58534;BME280;44109;52.398;7.024;2022-11-12T12:04:05;102912.81;;;12.35;93.08
58534;BME280;44109;52.398;7.024;2022-11-12T12:06:59;102909.41;;;12.38;93.50
58534;BME280;44109;52.398;7.024;2022-11-12T12:09:41;102903.66;;;12.43;91.76
58534;BME280;44109;52.398;7.024;2022-11-12T12:12:25;102903.97;;;12.50;92.06
58534;BME280;44109;52.398;7.024;2022-11-12T12:15:24;102899.22;;;12.51;91.09
58534;BME280;44109;52.398;7.024;2022-11-12T12:18:21;102902.59;;;12.65;91.65
58534;BME280;44109;52.398;7.024;2022-11-12T12:21:02;102899.63;;;12.70;92.28
58534;BME280;44109;52.398;7.024;2022-11-12T12:23:39;102880.31;;;12.65;92.41
58534;BME280;44109;52.398;7.024;2022-11-12T12:26:15;102893.72;;;12.72;92.65
58534;BME280;44109;52.398;7.024;2022-11-12T12:28:53;102898.81;;;12.69;93.02
58534;BME280;44109;52.398;7.024;2022-11-12T12:31:29;102887.38;;;12.62;92.45
58534;BME280;44109;52.398;7.024;2022-11-12T12:34:03;102881.31;;;12.69;92.67
58534;BME280;44109;52.398;7.024;2022-11-12T12:36:41;102890.63;;;12.73;93.23
58534;BME280;44109;52.398;7.024;2022-11-12T12:39:13;102886.50;;;12.79;93.08
58534;BME280;44109;52.398;7.024;2022-11-12T12:41:49;102882.41;;;12.85;92.67
58534;BME280;44109;52.398;7.024;2022-11-12T12:44:25;102885.09;;;12.94;93.19
58534;BME280;44109;52.398;7.024;2022-11-12T12:47:12;102851.78;;;12.77;92.12
58534;BME280;44109;52.398;7.024;2022-11-12T12:49:42;102876.91;;;12.98;91.90
58534;BME280;44109;52.398;7.024;2022-11-12T12:52:12;102887.97;;;13.15;91.75
58534;BME280;44109;52.398;7.024;2022-11-12T12:54:54;102884.00;;;13.16;92.19
58534;BME280;44109;52.398;7.024;2022-11-12T12:57:31;102887.94;;;13.24;92.62
58534;BME280;44109;52.398;7.024;2022-11-12T13:00:26;102876.44;;;13.25;92.32
58534;BME280;44109;52.398;7.024;2022-11-12T13:02:58;102884.72;;;13.13;93.77
58534;BME280;44109;52.398;7.024;2022-11-12T13:05:28;102875.34;;;13.17;92.35
58534;BME280;44109;52.398;7.024;2022-11-12T13:08:02;102840.50;;;13.03;92.19
58534;BME280;44109;52.398;7.024;2022-11-12T13:10:51;102871.84;;;13.29;92.63
58534;BME280;44109;52.398;7.024;2022-11-12T13:13:33;102849.09;;;13.18;93.16
58534;BME280;44109;52.398;7.024;2022-11-12T13:16:06;102881.09;;;13.42;93.24
58534;BME280;44109;52.398;7.024;2022-11-12T13:18:56;102881.25;;;13.45;90.92
58534;BME280;44109;52.398;7.024;2022-11-12T13:21:27;102867.56;;;13.53;90.67
58534;BME280;44109;52.398;7.024;2022-11-12T13:23:58;102863.91;;;13.61;91.42
58534;BME280;44109;52.398;7.024;2022-11-12T13:26:48;102873.50;;;13.72;92.52
58534;BME280;44109;52.398;7.024;2022-11-12T13:29:23;102865.38;;;13.79;92.70